Sunday, December 17, 2017, 4:32 PM EST
Back to Local

KW22, Buckhannon, Upshur County Regional Airport

Location: Buckhannon, WV, United States Lat: 39
Local Time: 4:32 PM EST (21:32 GMT) Lon: -80.267
Time Zone: US/Eastern Elev: 1633 ft

Show me the last for .
Show Decoded

2017-12-17 16:15 METAR KW22 172115Z AUTO 00000KT 10SM 06/M02 A3014 RMK AO2 =
2017-12-17 15:35 METAR KW22 172035Z AUTO 00000KT 10SM FEW060 OVC080 06/M02 A3011 RMK AO2 =
2017-12-17 15:15 METAR KW22 172015Z AUTO 00000KT 10SM BKN085 06/M02 A3011 RMK AO2 =
2017-12-17 14:50 METAR KW22 171950Z AUTO 00000KT 10SM FEW065 SCT090 06/M03 A3010 RMK AO2 =
2017-12-17 14:30 METAR KW22 171930Z AUTO 00000KT 10SM CLR 06/M03 A3008 RMK AO2 =
2017-12-17 14:10 METAR KW22 171910Z AUTO 20004KT 10SM SCT100 06/M02 A3010 RMK AO2 =
2017-12-17 13:55 METAR KW22 171855Z AUTO 18006KT 10SM BKN110 06/M02 A3010 RMK AO2 =
2017-12-17 13:35 METAR KW22 171835Z AUTO 19005KT 10SM SCT110 06/M02 A3012 RMK AO2 =
2017-12-17 13:15 METAR KW22 171815Z AUTO 19006KT 10SM CLR 06/M02 A3013 RMK AO2 =
2017-12-17 12:55 METAR KW22 171755Z AUTO 00000KT 10SM CLR 05/M02 A3014 RMK AO2 =
2017-12-17 12:35 METAR KW22 171735Z AUTO 18003KT 10SM CLR 05/M02 A3017 RMK AO2 =
2017-12-17 12:15 METAR KW22 171715Z AUTO 00000KT 10SM CLR 05/M02 A3018 RMK AO2 =
2017-12-17 11:55 METAR KW22 171655Z AUTO 21004KT 10SM FEW040 FEW060 FEW070 05/M02 A3019 RMK AO2 =
2017-12-17 11:35 METAR KW22 171635Z AUTO 20004KT 10SM FEW039 FEW060 04/M02 A3020 RMK AO2 =
2017-12-17 11:15 METAR KW22 171615Z AUTO 20004KT 10SM CLR 04/M02 A3022 RMK AO2 =
2017-12-17 10:55 METAR KW22 171555Z AUTO 160KT 10SM CLR 04/M03 A3022 RMK AO2 =
2017-12-17 10:30 METAR KW22 171530Z AUTO 18004KT 10SM CLR 04/M03 A3025 RMK AO2 =
2017-12-17 10:15 METAR KW22 171515Z AUTO 21004KT 10SM CLR 04/M03 A3026 RMK AO2 =
2017-12-17 09:55 METAR KW22 171455Z AUTO 20005KT 10SM CLR 03/M03 A3025 RMK AO2 =
2017-12-17 09:35 METAR KW22 171435Z AUTO 22005KT 10SM CLR 03/M03 A3023 RMK AO2 =
2017-12-17 09:15 METAR KW22 171415Z AUTO 21005KT 10SM CLR 02/M04 A3022 RMK AO2 =
2017-12-17 08:55 METAR KW22 171355Z AUTO 19003KT 10SM CLR 02/M04 A3020 RMK AO2 =
2017-12-17 08:35 METAR KW22 171335Z AUTO 19003KT 10SM CLR 01/M04 A3019 RMK AO2 =
2017-12-17 08:15 METAR KW22 171315Z AUTO 16003KT 10SM CLR 02/M04 A3018 RMK AO2 =
2017-12-17 07:55 METAR KW22 171255Z AUTO 17004KT 10SM CLR 02/M04 A3020 RMK AO2 =
2017-12-17 07:35 METAR KW22 171235Z AUTO 20005KT 10SM CLR 02/M04 A3021 RMK AO2 =
2017-12-17 07:15 METAR KW22 171215Z AUTO 20006KT 10SM CLR 01/M04 A3023 RMK AO2 =
2017-12-17 06:55 METAR KW22 171155Z AUTO 21006KT 10SM FEW037 01/M04 A3022 RMK AO2 =
2017-12-17 06:35 METAR KW22 171135Z AUTO 20006KT 10SM FEW037 02/M04 A3021 RMK AO2 =
2017-12-17 06:10 METAR KW22 171110Z AUTO 22005KT 10SM FEW040 01/M04 A3021 RMK AO2 =
2017-12-17 05:55 METAR KW22 171055Z AUTO 21004KT 10SM FEW038 01/M04 A3020 RMK AO2 =
2017-12-17 05:35 METAR KW22 171035Z AUTO 19005KT 10SM FEW037 01/M04 A3020 RMK AO2 =
2017-12-17 05:15 METAR KW22 171015Z AUTO 20004KT 10SM BKN038 01/M04 A3020 RMK AO2 =
2017-12-17 04:55 METAR KW22 170955Z AUTO 19004KT 10SM BKN039 02/M04 A3020 RMK AO2 =
2017-12-17 04:30 METAR KW22 170930Z AUTO 19003KT 10SM FEW040 01/M04 A3020 RMK AO2 =
2017-12-17 04:15 METAR KW22 170915Z AUTO 18003KT 10SM FEW039 FEW046 01/M04 A3020 RMK AO2 =
2017-12-17 03:55 METAR KW22 170855Z AUTO 19003KT 10SM FEW044 01/M04 A3021 RMK AO2 =
2017-12-17 03:35 METAR KW22 170835Z AUTO 20005KT 10SM SCT065 02/M04 A3021 RMK AO2 =
2017-12-17 03:15 METAR KW22 170815Z AUTO 20004KT 10SM OVC065 01/M04 A3022 RMK AO2 =
2017-12-17 02:55 METAR KW22 170755Z AUTO 22006KT 10SM OVC070 02/M04 A3023 RMK AO2 =
2017-12-17 02:35 METAR KW22 170735Z AUTO 21005KT 10SM OVC070 02/M04 A3023 RMK AO2 =
2017-12-17 02:15 METAR KW22 170715Z AUTO 21006KT 10SM OVC070 02/M04 A3022 RMK AO2 =
2017-12-17 01:55 METAR KW22 170655Z AUTO 21005KT 10SM OVC070 02/M04 A3022 RMK AO2 =
2017-12-17 01:35 METAR KW22 170635Z AUTO 21007KT 10SM OVC065 02/M04 A3021 RMK AO2 =
2017-12-17 01:15 METAR KW22 170615Z AUTO 22006KT 10SM OVC065 02/M04 A3020 RMK AO2 =
2017-12-17 00:55 METAR KW22 170555Z AUTO 23006KT 10SM BKN065 03/M04 A3019 RMK AO2 =
2017-12-17 00:35 METAR KW22 170535Z AUTO 22006KT 10SM FEW045 SCT065 02/M04 A3019 RMK AO2 =
2017-12-17 00:15 METAR KW22 170515Z AUTO 21006KT 10SM FEW043 SCT065 01/M04 A3019 RMK AO2 =
2017-12-16 23:55 METAR KW22 170455Z AUTO 20004KT 10SM FEW041 02/M05 A3019 RMK AO2 =
2017-12-16 23:35 METAR KW22 170435Z AUTO 00000KT 10SM FEW041 03/M04 A3018 RMK AO2 =
2017-12-16 23:15 METAR KW22 170415Z AUTO 00000KT 10SM FEW042 03/M05 A3018 RMK AO2 =
2017-12-16 22:55 METAR KW22 170355Z AUTO 00000KT 10SM FEW046 02/M05 A3018 RMK AO2 =
2017-12-16 22:35 METAR KW22 170335Z AUTO 20004KT 10SM CLR 03/M05 A3017 RMK AO2 =
2017-12-16 22:15 METAR KW22 170315Z AUTO 20005KT 10SM CLR 02/M05 A3016 RMK AO2 =
2017-12-16 21:55 METAR KW22 170255Z AUTO 20005KT 10SM CLR 02/M05 A3016 RMK AO2 =
2017-12-16 21:35 METAR KW22 170235Z AUTO 20004KT 10SM CLR 02/M05 A3015 RMK AO2 =
2017-12-16 21:15 METAR KW22 170215Z AUTO 20004KT 10SM SCT043 01/M05 A3014 RMK AO2 =
2017-12-16 20:55 METAR KW22 170155Z AUTO 20005KT 10SM FEW026 SCT042 01/M05 A3014 RMK AO2 =
2017-12-16 20:35 METAR KW22 170135Z AUTO 19004KT 10SM FEW028 FEW037 SCT044 02/M05 A3014 RMK AO2 =
2017-12-16 20:15 METAR KW22 170115Z AUTO 21006KT 10SM FEW030 FEW038 SCT046 02/M05 A3014 RMK AO2 =
2017-12-16 19:55 METAR KW22 170055Z AUTO 20005KT 10SM FEW024 FEW031 FEW070 02/M05 A3013 RMK AO2 =
2017-12-16 19:35 METAR KW22 170035Z AUTO 20005KT 10SM CLR 02/M05 A3013 RMK AO2 =
2017-12-16 19:15 METAR KW22 170015Z AUTO 19005KT 10SM CLR 03/M05 A3012 RMK AO2 =
2017-12-16 18:50 METAR KW22 162350Z AUTO 00000KT 10SM CLR 04/M05 A3011 RMK AO2 =
2017-12-16 18:35 METAR KW22 162335Z AUTO 22004KT 10SM CLR 04/M05 A3011 RMK AO2 =
2017-12-16 18:15 METAR KW22 162315Z AUTO 22004KT 10SM CLR 04/M05 A3010 RMK AO2 =
2017-12-16 17:55 METAR KW22 162255Z AUTO 22005KT 10SM CLR 05/M05 A3010 RMK AO2 =
2017-12-16 17:35 METAR KW22 162235Z AUTO 22006KT 10SM CLR 05/M05 A3009 RMK AO2 =
2017-12-16 17:15 METAR KW22 162215Z AUTO 22008KT 10SM CLR 05/M05 A3008 RMK AO2 =
2017-12-16 16:55 METAR KW22 162155Z AUTO 23008G13KT 10SM CLR 06/M05 A3007 RMK AO2 =
2017-12-16 16:35 METAR KW22 162135Z AUTO 23008KT 10SM 06/M05 A3006 RMK AO2 =

Support USWX by starting your Amazon purchase here.